Terminal Aerodrome Forecast
Issued by NWS

Home | Current Version | Previous Version | Text Only | Print | Product List | Glossary On
Versions: 1 2 3 4 5 6 7 8 9 10 11 12 13 14 15 16 17 18 19 20 21 22 23 24 25 26 27 28 29 30 31 32 33 34 35 36 37 38 39 40
947
FTUS41 KGYX 240329 AAC
TAFPSM
TAF AMD
KPSM 240329Z 2403/2424 02011KT P6SM -RA BKN015 OVC021
      TEMPO 2403/2405 4SM BR OVC012
     FM240500 04020G32KT 1 1/2SM -SNPL BR OVC009 WS015/09035KT
     FM240900 05025G35KT 3SM -FZRA BR OVC015
     FM241100 05022G32KT 3SM RA OVC007 WS020/06050KT
     FM241800 04016G24KT 5SM -RA OVC010=

USA.gov is the U.S. government's official web portal to all federal, state and local government web resources and services.